Time;durP1;ratioP1;P1;durP2;ratioP2;P2;SDS_P1;SDS_P2;PMS_P1;PMS_P2;Temp;Humidity;BMP_temperature;BMP_pressure;BME280_temperature;BME280_humidity;BME280_pressure;Samples;Min_cycle;Max_cycle;Signal;HPM_P1;HPM_P2
2024/04/09 00:00:03;;;;;;;252.43;91.97;;;;;;;;;;5514715;25;20439;-42
2024/04/09 00:02:29;;;;;;;250.57;91.33;;;;;;;;;;5514052;25;20445;-42
2024/04/09 00:04:56;;;;;;;253.73;96.90;;;;;;;;;;5518960;25;20498;-43
2024/04/09 00:07:22;;;;;;;252.83;95.50;;;;;;;;;;5517696;25;20453;-43
2024/04/09 00:09:51;;;;;;;253.97;94.33;;;;;;;;;;5516940;25;20518;-44
2024/04/09 00:12:21;;;;;;;256.93;99.70;;;;;;;;;;5518143;25;20453;-43
2024/04/09 00:14:47;;;;;;;251.43;92.03;;;;;;;;;;5518709;26;20524;-43
2024/04/09 00:17:14;;;;;;;254.23;96.30;;;;;;;;;;5514636;26;20992;-42
2024/04/09 00:19:40;;;;;;;256.47;99.00;;;;;;;;;;5514378;25;20439;-42
2024/04/09 00:22:06;;;;;;;254.13;94.80;;;;;;;;;;5512899;25;20865;-42
2024/04/09 00:24:32;;;;;;;254.77;98.23;;;;;;;;;;5515942;25;20843;-42
2024/04/09 00:27:01;;;;;;;256.77;97.70;;;;;;;;;;5518987;25;20449;-42
2024/04/09 00:29:28;;;;;;;251.47;92.23;;;;;;;;;;5513319;25;20446;-42
2024/04/09 00:31:54;;;;;;;252.30;93.47;;;;;;;;;;5509744;26;21089;-42
2024/04/09 00:34:19;;;;;;;253.33;94.87;;;;;;;;;;5508751;26;20446;-43
2024/04/09 00:36:46;;;;;;;254.00;96.03;;;;;;;;;;5522273;25;20811;-42
2024/04/09 00:39:19;;;;;;;254.03;94.03;;;;;;;;;;5521644;25;20445;-42
2024/04/09 00:41:47;;;;;;;252.50;92.37;;;;;;;;;;5521820;25;21040;-42
2024/04/09 00:44:13;;;;;;;254.33;97.47;;;;;;;;;;5518419;26;20451;-42
2024/04/09 00:46:39;;;;;;;251.80;92.03;;;;;;;;;;5514926;26;20518;-42
2024/04/09 00:49:06;;;;;;;254.17;94.00;;;;;;;;;;5507508;26;20569;-42
2024/04/09 00:51:33;;;;;;;251.97;93.87;;;;;;;;;;5507015;26;21114;-42
2024/04/09 00:53:59;;;;;;;249.83;89.93;;;;;;;;;;5516275;26;20452;-42
2024/04/09 00:56:26;;;;;;;251.03;91.50;;;;;;;;;;5521011;26;21028;-42
2024/04/09 00:58:52;;;;;;;252.67;96.20;;;;;;;;;;5519007;26;20447;-42
2024/04/09 01:01:18;;;;;;;250.90;89.03;;;;;;;;;;5506058;26;20994;-41
2024/04/09 01:03:45;;;;;;;252.00;91.43;;;;;;;;;;5501181;26;20452;-42
2024/04/09 01:06:11;;;;;;;253.40;93.03;;;;;;;;;;5511268;26;20503;-42
2024/04/09 01:08:37;;;;;;;250.67;89.53;;;;;;;;;;5513048;26;20450;-42
2024/04/09 01:11:03;;;;;;;252.17;90.93;;;;;;;;;;5518788;25;20445;-42
2024/04/09 01:13:29;;;;;;;252.73;92.70;;;;;;;;;;5512879;25;20457;-43
2024/04/09 01:15:55;;;;;;;250.77;88.13;;;;;;;;;;5508385;26;21026;-44
2024/04/09 01:18:21;;;;;;;249.20;86.87;;;;;;;;;;5508116;25;21092;-41
2024/04/09 01:20:47;;;;;;;253.40;95.00;;;;;;;;;;5522248;26;20971;-42
2024/04/09 01:23:13;;;;;;;255.23;95.63;;;;;;;;;;5521104;26;20449;-41
2024/04/09 01:25:39;;;;;;;253.47;92.63;;;;;;;;;;5522432;26;20573;-42
2024/04/09 01:28:05;;;;;;;250.33;88.10;;;;;;;;;;5521987;25;20535;-42
2024/04/09 01:30:32;;;;;;;251.87;91.73;;;;;;;;;;5518777;25;21120;-43
2024/04/09 01:32:58;;;;;;;248.87;87.43;;;;;;;;;;5517768;25;20531;-41
2024/04/09 01:35:24;;;;;;;249.90;89.63;;;;;;;;;;5516938;26;20459;-42
2024/04/09 01:37:51;;;;;;;250.80;89.97;;;;;;;;;;5515814;25;20443;-42
2024/04/09 01:40:17;;;;;;;251.33;87.83;;;;;;;;;;5522635;26;20525;-44
2024/04/09 01:42:43;;;;;;;253.30;94.20;;;;;;;;;;5516228;26;20503;-42
2024/04/09 01:45:10;;;;;;;255.33;93.03;;;;;;;;;;5513730;26;21069;-43
2024/04/09 01:47:36;;;;;;;248.53;86.13;;;;;;;;;;5513644;25;21043;-42
2024/04/09 01:50:05;;;;;;;250.07;84.43;;;;;;;;;;5501537;26;20535;-42
2024/04/09 01:52:32;;;;;;;250.27;88.87;;;;;;;;;;5497022;26;20443;-42
2024/04/09 01:54:58;;;;;;;256.97;93.17;;;;;;;;;;5517979;26;20569;-42
2024/04/09 01:57:27;;;;;;;248.80;85.93;;;;;;;;;;5509351;26;20443;-43
2024/04/09 01:59:54;;;;;;;255.53;92.77;;;;;;;;;;5508372;26;20990;-42
2024/04/09 02:02:20;;;;;;;251.53;87.60;;;;;;;;;;5507488;25;21067;-42
2024/04/09 02:04:46;;;;;;;251.03;87.53;;;;;;;;;;5508093;25;20465;-42
2024/04/09 02:07:13;;;;;;;252.87;88.13;;;;;;;;;;5520066;26;20454;-42
2024/04/09 02:09:39;;;;;;;253.87;90.20;;;;;;;;;;5521744;25;20514;-42
2024/04/09 02:12:05;;;;;;;253.67;88.30;;;;;;;;;;5520906;25;20981;-42
2024/04/09 02:14:31;;;;;;;251.87;91.33;;;;;;;;;;5518077;25;20509;-43
2024/04/09 02:16:57;;;;;;;258.67;95.37;;;;;;;;;;5516841;26;20462;-42
2024/04/09 02:19:24;;;;;;;253.43;88.20;;;;;;;;;;5516124;26;20454;-42
2024/04/09 02:21:51;;;;;;;255.70;92.97;;;;;;;;;;5514469;26;20847;-42
2024/04/09 02:24:17;;;;;;;253.20;86.80;;;;;;;;;;5486500;26;20443;-42
2024/04/09 02:26:43;;;;;;;252.70;88.30;;;;;;;;;;5514975;26;20539;-42
2024/04/09 02:29:09;;;;;;;250.43;83.37;;;;;;;;;;5513173;26;20496;-42
2024/04/09 02:31:35;;;;;;;249.90;83.47;;;;;;;;;;5511657;26;20466;-42
2024/04/09 02:34:01;;;;;;;251.37;85.30;;;;;;;;;;5510713;25;20447;-42
2024/04/09 02:36:27;;;;;;;250.77;82.83;;;;;;;;;;5514674;26;20509;-42
2024/04/09 02:38:53;;;;;;;254.13;88.37;;;;;;;;;;5517688;25;20452;-42
2024/04/09 02:41:20;;;;;;;254.47;89.87;;;;;;;;;;5509072;26;20787;-42
2024/04/09 02:43:46;;;;;;;248.63;80.47;;;;;;;;;;5507672;26;20512;-42
2024/04/09 02:46:12;;;;;;;255.50;90.07;;;;;;;;;;5506430;26;20450;-42
2024/04/09 02:48:39;;;;;;;248.37;83.33;;;;;;;;;;5516550;25;20509;-43
2024/04/09 02:51:05;;;;;;;253.83;86.10;;;;;;;;;;5502754;26;20875;-42
2024/04/09 02:53:32;;;;;;;248.07;79.13;;;;;;;;;;5522637;25;20577;-43
2024/04/09 02:56:18;;;;;;;252.47;86.27;;;;;;;;;;5517870;25;20500;-43
2024/04/09 02:58:44;;;;;;;248.57;82.03;;;;;;;;;;5517604;25;20506;-42
2024/04/09 03:01:11;;;;;;;252.47;87.27;;;;;;;;;;5516340;25;20984;-42
2024/04/09 03:03:38;;;;;;;249.00;79.67;;;;;;;;;;5515270;25;20446;-42
2024/04/09 03:06:13;;;;;;;252.77;84.70;;;;;;;;;;5513827;25;20494;-42
2024/04/09 03:08:39;;;;;;;248.90;81.77;;;;;;;;;;5516562;25;20907;-43
2024/04/09 03:11:12;;;;;;;248.67;82.43;;;;;;;;;;5524232;25;20453;-42
2024/04/09 03:13:38;;;;;;;252.33;86.47;;;;;;;;;;5517032;25;20825;-42
2024/04/09 03:16:13;;;;;;;251.67;83.33;;;;;;;;;;5514587;26;20444;-43
2024/04/09 03:18:39;;;;;;;247.40;79.30;;;;;;;;;;5510359;25;20857;-43
2024/04/09 03:21:05;;;;;;;248.77;81.57;;;;;;;;;;5512413;25;20438;-43
2024/04/09 03:23:31;;;;;;;248.33;80.53;;;;;;;;;;5514711;26;20463;-43
2024/04/09 03:25:57;;;;;;;252.87;84.07;;;;;;;;;;5519052;26;21104;-42
2024/04/09 03:28:23;;;;;;;248.27;82.13;;;;;;;;;;5513237;26;20444;-43
2024/04/09 03:30:59;;;;;;;250.03;85.30;;;;;;;;;;5509608;26;20455;-43
2024/04/09 03:33:25;;;;;;;251.53;84.97;;;;;;;;;;5523947;25;20443;-42
2024/04/09 03:35:54;;;;;;;253.63;87.17;;;;;;;;;;5509961;25;20899;-42
2024/04/09 03:38:20;;;;;;;247.93;79.17;;;;;;;;;;5521684;26;20518;-42
2024/04/09 03:41:13;;;;;;;251.93;83.53;;;;;;;;;;5520972;26;20447;-43
2024/04/09 03:43:39;;;;;;;251.80;85.93;;;;;;;;;;5503244;26;20508;-42
2024/04/09 03:46:08;;;;;;;253.97;86.57;;;;;;;;;;5523155;25;20447;-43
2024/04/09 03:48:35;;;;;;;250.57;82.87;;;;;;;;;;5515464;25;20455;-43
2024/04/09 03:51:01;;;;;;;248.27;81.57;;;;;;;;;;5506210;26;20457;-43
2024/04/09 03:53:27;;;;;;;247.27;79.67;;;;;;;;;;5516644;26;21078;-42
2024/04/09 03:56:03;;;;;;;251.77;84.40;;;;;;;;;;5515066;26;20507;-42
2024/04/09 03:58:33;;;;;;;249.97;81.60;;;;;;;;;;5518933;26;20456;-43
2024/04/09 04:01:00;;;;;;;249.67;82.43;;;;;;;;;;5491222;26;20461;-42
2024/04/09 04:03:27;;;;;;;250.43;83.90;;;;;;;;;;5513038;25;20496;-42
2024/04/09 04:05:54;;;;;;;250.57;83.30;;;;;;;;;;5511615;26;20444;-42
2024/04/09 04:08:30;;;;;;;248.83;80.00;;;;;;;;;;5503002;26;20548;-43
2024/04/09 04:10:59;;;;;;;253.67;87.90;;;;;;;;;;5490171;26;20451;-43
2024/04/09 04:13:26;;;;;;;250.47;81.73;;;;;;;;;;5514984;26;20458;-42
2024/04/09 04:16:05;;;;;;;252.27;82.53;;;;;;;;;;5517863;25;20460;-42
2024/04/09 04:18:31;;;;;;;245.93;77.33;;;;;;;;;;5524999;26;20954;-42
2024/04/09 04:20:58;;;;;;;246.30;75.37;;;;;;;;;;5520798;25;20864;-42
2024/04/09 04:23:24;;;;;;;244.50;72.87;;;;;;;;;;5520876;25;20618;-42
2024/04/09 04:25:54;;;;;;;251.87;82.97;;;;;;;;;;5519409;26;20510;-41
2024/04/09 04:28:20;;;;;;;245.77;75.80;;;;;;;;;;5518730;26;20791;-42
2024/04/09 04:30:46;;;;;;;245.57;75.93;;;;;;;;;;5518373;25;20473;-42
2024/04/09 04:33:12;;;;;;;250.53;80.87;;;;;;;;;;5524373;26;20451;-42
2024/04/09 04:35:38;;;;;;;244.67;72.60;;;;;;;;;;5516353;26;20454;-42
2024/04/09 04:38:04;;;;;;;246.33;75.23;;;;;;;;;;5515710;25;20515;-43
2024/04/09 04:40:30;;;;;;;244.97;76.07;;;;;;;;;;5514806;25;20455;-42
2024/04/09 04:42:55;;;;;;;248.53;74.17;;;;;;;;;;5513687;26;21140;-42
2024/04/09 04:45:21;;;;;;;250.30;77.77;;;;;;;;;;5518872;26;20894;-42
2024/04/09 04:47:47;;;;;;;248.17;77.30;;;;;;;;;;5518167;25;20799;-42
2024/04/09 04:50:14;;;;;;;250.10;78.37;;;;;;;;;;5496213;26;20491;-42
2024/04/09 04:52:40;;;;;;;250.83;80.30;;;;;;;;;;5510142;25;20454;-42
2024/04/09 04:55:06;;;;;;;250.57;76.27;;;;;;;;;;5508946;26;20512;-42
2024/04/09 04:57:33;;;;;;;244.37;73.90;;;;;;;;;;5512915;26;20459;-42
2024/04/09 04:59:58;;;;;;;249.00;77.17;;;;;;;;;;5518907;26;20559;-42
2024/04/09 05:02:24;;;;;;;246.50;75.10;;;;;;;;;;5524645;26;20450;-42
2024/04/09 05:04:53;;;;;;;246.57;72.47;;;;;;;;;;5521476;26;20448;-42
2024/04/09 05:07:22;;;;;;;247.17;72.30;;;;;;;;;;5519776;25;20495;-42
2024/04/09 05:09:48;;;;;;;247.03;74.03;;;;;;;;;;5508965;26;20454;-42
2024/04/09 05:12:14;;;;;;;248.55;75.20;;;;;;;;;;5518147;26;20445;-42
2024/04/09 05:14:40;;;;;;;247.47;73.73;;;;;;;;;;5510846;25;20289;-42
2024/04/09 05:17:08;;;;;;;247.93;74.13;;;;;;;;;;5522247;26;20802;-42
2024/04/09 05:19:34;;;;;;;243.33;68.37;;;;;;;;;;5516377;26;20442;-42
2024/04/09 05:22:00;;;;;;;246.17;72.47;;;;;;;;;;5514981;26;20510;-42
2024/04/09 05:24:26;;;;;;;244.60;71.37;;;;;;;;;;5506190;25;20507;-42
2024/04/09 05:26:52;;;;;;;248.13;74.90;;;;;;;;;;5508119;26;20463;-42
2024/04/09 05:29:18;;;;;;;246.87;74.20;;;;;;;;;;5517581;25;20486;-42
2024/04/09 05:31:43;;;;;;;243.63;70.43;;;;;;;;;;5518115;26;20507;-42
2024/04/09 05:34:09;;;;;;;244.67;71.13;;;;;;;;;;5509951;26;20438;-42
2024/04/09 05:36:37;;;;;;;245.57;71.97;;;;;;;;;;5521280;26;20515;-42
2024/04/09 05:39:04;;;;;;;246.73;72.07;;;;;;;;;;5513756;26;20973;-42
2024/04/09 05:41:30;;;;;;;247.63;73.33;;;;;;;;;;5516050;26;20499;-42
2024/04/09 05:43:55;;;;;;;245.40;71.73;;;;;;;;;;5523146;25;20450;-43
2024/04/09 05:46:21;;;;;;;245.93;70.60;;;;;;;;;;5521936;25;20438;-43
2024/04/09 05:48:47;;;;;;;246.10;72.17;;;;;;;;;;5521700;26;20561;-43
2024/04/09 05:51:13;;;;;;;246.73;71.80;;;;;;;;;;5499336;25;20453;-43
2024/04/09 05:53:39;;;;;;;244.33;68.53;;;;;;;;;;5518699;25;21291;-43
2024/04/09 05:56:05;;;;;;;246.90;74.60;;;;;;;;;;5515345;25;20964;-43
2024/04/09 05:58:32;;;;;;;244.63;70.70;;;;;;;;;;5512720;26;21075;-43
2024/04/09 06:01:00;;;;;;;245.98;71.63;;;;;;;;;;5522208;26;20437;-43
2024/04/09 06:03:27;;;;;;;244.17;72.43;;;;;;;;;;5522215;25;20268;-43
2024/04/09 06:05:55;;;;;;;245.17;70.87;;;;;;;;;;5518479;26;20951;-43
2024/04/09 06:08:21;;;;;;;244.87;71.07;;;;;;;;;;5519658;25;20443;-43
2024/04/09 06:10:47;;;;;;;246.00;74.07;;;;;;;;;;5519522;26;20445;-43
2024/04/09 06:13:13;;;;;;;245.13;72.28;;;;;;;;;;5510730;25;20309;-43
2024/04/09 06:15:39;;;;;;;245.30;70.87;;;;;;;;;;5520927;25;20219;-43
2024/04/09 06:18:05;;;;;;;251.57;78.60;;;;;;;;;;5519952;25;20492;-43
2024/04/09 06:20:31;;;;;;;249.27;74.27;;;;;;;;;;5510409;26;20503;-43
2024/04/09 06:22:57;;;;;;;243.67;69.67;;;;;;;;;;5515614;26;20465;-43
2024/04/09 06:25:23;;;;;;;245.53;70.77;;;;;;;;;;5515899;25;20487;-43
2024/04/09 06:27:50;;;;;;;245.97;71.30;;;;;;;;;;5518173;25;20496;-43
2024/04/09 06:30:16;;;;;;;245.23;72.53;;;;;;;;;;5522752;26;20490;-43
2024/04/09 06:32:42;;;;;;;247.77;73.27;;;;;;;;;;5521229;26;20519;-43
2024/04/09 06:35:08;;;;;;;247.17;73.27;;;;;;;;;;5518241;25;21028;-43
2024/04/09 06:37:37;;;;;;;246.63;75.33;;;;;;;;;;5508586;26;20442;-43
2024/04/09 06:40:05;;;;;;;247.57;76.67;;;;;;;;;;5507194;25;20494;-43
2024/04/09 06:42:31;;;;;;;243.60;71.27;;;;;;;;;;5521164;26;20874;-43
2024/04/09 06:44:57;;;;;;;249.30;80.77;;;;;;;;;;5521129;26;20442;-43
2024/04/09 06:47:23;;;;;;;247.20;75.23;;;;;;;;;;5521622;25;20578;-42
2024/04/09 06:49:49;;;;;;;248.83;75.57;;;;;;;;;;5515683;25;20572;-42
2024/04/09 06:52:16;;;;;;;245.70;72.80;;;;;;;;;;5515234;25;20563;-43
2024/04/09 06:54:42;;;;;;;244.47;70.83;;;;;;;;;;5512334;26;20502;-43
2024/04/09 06:57:08;;;;;;;245.60;74.27;;;;;;;;;;5520980;25;20808;-43
2024/04/09 06:59:34;;;;;;;247.07;75.77;;;;;;;;;;5521564;26;20550;-43
2024/04/09 07:02:01;;;;;;;250.60;80.67;;;;;;;;;;5507932;26;20535;-43
2024/04/09 07:04:27;;;;;;;251.97;83.43;;;;;;;;;;5518823;26;20529;-43
2024/04/09 07:06:54;;;;;;;249.17;75.20;;;;;;;;;;5512531;26;20462;-43
2024/04/09 07:09:20;;;;;;;246.37;73.57;;;;;;;;;;5508359;25;20498;-43
2024/04/09 07:11:46;;;;;;;246.77;73.77;;;;;;;;;;5511985;26;20796;-43
2024/04/09 07:14:13;;;;;;;245.10;75.10;;;;;;;;;;5507014;26;20438;-43
2024/04/09 07:16:40;;;;;;;248.27;77.10;;;;;;;;;;5511908;26;20220;-42
2024/04/09 07:19:06;;;;;;;248.32;77.75;;;;;;;;;;5515160;25;20444;-42
2024/04/09 07:21:31;;;;;;;247.50;70.97;;;;;;;;;;5511258;25;20704;-42
2024/04/09 07:23:57;;;;;;;247.30;70.87;;;;;;;;;;5507901;26;20947;-42
2024/04/09 07:26:23;;;;;;;248.20;76.73;;;;;;;;;;5506819;26;20547;-43
2024/04/09 07:28:51;;;;;;;247.87;76.37;;;;;;;;;;5506024;26;20509;-43
2024/04/09 07:31:17;;;;;;;246.50;74.55;;;;;;;;;;5516023;26;20439;-43
2024/04/09 07:33:43;;;;;;;247.32;77.38;;;;;;;;;;5520008;25;20323;-43
2024/04/09 07:36:09;;;;;;;250.60;83.23;;;;;;;;;;5520292;25;20925;-43
2024/04/09 07:38:35;;;;;;;244.50;73.70;;;;;;;;;;5517332;25;20551;-43
2024/04/09 07:41:01;;;;;;;251.87;79.37;;;;;;;;;;5514500;25;20216;-43
2024/04/09 07:43:28;;;;;;;243.57;69.87;;;;;;;;;;5515478;26;20444;-43
2024/04/09 07:45:54;;;;;;;243.18;68.53;;;;;;;;;;5514118;26;20435;-43
2024/04/09 07:48:24;;;;;;;245.80;72.18;;;;;;;;;;5520951;26;20327;-43
2024/04/09 07:50:51;;;;;;;245.68;70.70;;;;;;;;;;5509844;26;20270;-43
2024/04/09 07:53:18;;;;;;;243.35;67.72;;;;;;;;;;5512361;25;20260;-43
2024/04/09 07:55:44;;;;;;;251.57;81.50;;;;;;;;;;5506138;26;20224;-43
2024/04/09 07:58:11;;;;;;;243.43;69.47;;;;;;;;;;5498991;26;20228;-43
2024/04/09 08:00:37;;;;;;;244.07;70.80;;;;;;;;;;5516302;25;20698;-43
2024/04/09 08:03:03;;;;;;;244.40;69.85;;;;;;;;;;5520666;26;20285;-42
2024/04/09 08:05:29;;;;;;;247.73;79.20;;;;;;;;;;5513523;26;20288;-43
2024/04/09 08:07:55;;;;;;;245.95;76.05;;;;;;;;;;5511081;26;20602;-42
2024/04/09 08:10:21;;;;;;;244.70;72.20;;;;;;;;;;5510171;26;20216;-43
2024/04/09 08:12:54;;;;;;;244.23;73.32;;;;;;;;;;5509383;26;20505;-43
2024/04/09 08:15:20;;;;;;;246.95;78.47;;;;;;;;;;5495613;26;20218;-42
2024/04/09 08:17:50;;;;;;;243.35;72.82;;;;;;;;;;5522368;25;20656;-42
2024/04/09 08:20:16;;;;;;;242.50;70.35;;;;;;;;;;5495804;25;20218;-42
2024/04/09 08:22:42;;;;;;;244.00;73.63;;;;;;;;;;5520831;25;20248;-42
2024/04/09 08:25:09;;;;;;;252.45;78.78;;;;;;;;;;5519380;26;20225;-42
2024/04/09 08:27:40;;;;;;;247.05;75.97;;;;;;;;;;5518805;25;20593;-42
2024/04/09 08:30:12;;;;;;;247.98;76.70;;;;;;;;;;5517613;26;20738;-42
2024/04/09 08:32:39;;;;;;;245.98;76.13;;;;;;;;;;5519474;25;20338;-42
2024/04/09 08:35:05;;;;;;;259.90;85.53;;;;;;;;;;5522518;25;20222;-42
2024/04/09 08:37:31;;;;;;;245.35;72.25;;;;;;;;;;5503371;26;20218;-42
2024/04/09 08:39:57;;;;;;;243.80;71.60;;;;;;;;;;5510460;26;20225;-42
2024/04/09 08:42:24;;;;;;;240.82;71.38;;;;;;;;;;5513474;26;20507;-42
2024/04/09 08:44:50;;;;;;;244.18;74.00;;;;;;;;;;5512270;26;20282;-42
2024/04/09 08:47:18;;;;;;;244.95;73.32;;;;;;;;;;5519193;26;20258;-42
2024/04/09 08:49:44;;;;;;;242.55;71.53;;;;;;;;;;5517101;25;20215;-42
2024/04/09 08:52:10;;;;;;;246.35;77.35;;;;;;;;;;5510497;26;20225;-42
2024/04/09 08:54:37;;;;;;;240.43;69.13;;;;;;;;;;5509199;25;20260;-42
2024/04/09 08:57:05;;;;;;;248.90;81.15;;;;;;;;;;5500757;25;20236;-42
2024/04/09 08:59:31;;;;;;;246.38;77.95;;;;;;;;;;5522371;25;20266;-42
2024/04/09 09:02:13;;;;;;;246.82;75.97;;;;;;;;;;5521477;25;20327;-42
2024/04/09 09:04:39;;;;;;;245.95;78.18;;;;;;;;;;5522732;26;20219;-42
2024/04/09 09:07:26;;;;;;;245.95;76.40;;;;;;;;;;5521176;25;20277;-42
2024/04/09 09:09:59;;;;;;;250.82;82.05;;;;;;;;;;5496291;26;20235;-42
2024/04/09 09:12:25;;;;;;;251.25;81.63;;;;;;;;;;5518235;26;20563;-42
2024/04/09 09:15:00;;;;;;;248.70;83.00;;;;;;;;;;5513128;26;20273;-42
2024/04/09 09:17:29;;;;;;;244.32;76.57;;;;;;;;;;5503869;25;20443;-44
2024/04/09 09:19:58;;;;;;;247.25;78.78;;;;;;;;;;5513097;26;20652;-42
2024/04/09 09:22:25;;;;;;;248.40;80.85;;;;;;;;;;5520164;26;20230;-42
2024/04/09 09:24:57;;;;;;;252.32;88.63;;;;;;;;;;5518013;25;20638;-42
2024/04/09 09:27:23;;;;;;;247.00;79.38;;;;;;;;;;5502980;26;20270;-42
2024/04/09 09:29:58;;;;;;;251.80;85.57;;;;;;;;;;5505668;26;20220;-42
2024/04/09 09:32:24;;;;;;;251.88;86.97;;;;;;;;;;5510235;26;20852;-42
2024/04/09 09:34:51;;;;;;;251.77;83.33;;;;;;;;;;5508263;26;20225;-42
2024/04/09 09:37:17;;;;;;;246.13;76.95;;;;;;;;;;5515659;26;20493;-42
2024/04/09 09:39:43;;;;;;;247.23;81.30;;;;;;;;;;5516061;25;20223;-42
2024/04/09 09:42:10;;;;;;;249.27;82.28;;;;;;;;;;5507369;26;20456;-42
2024/04/09 09:44:38;;;;;;;247.25;81.45;;;;;;;;;;5521735;25;20265;-42
2024/04/09 09:47:04;;;;;;;252.50;84.38;;;;;;;;;;5519943;26;20712;-42
2024/04/09 09:49:30;;;;;;;248.77;82.75;;;;;;;;;;5519554;25;20226;-42
2024/04/09 09:51:56;;;;;;;253.83;91.40;;;;;;;;;;5518257;26;20228;-42
2024/04/09 09:54:23;;;;;;;251.40;90.40;;;;;;;;;;5523855;25;21262;-42
2024/04/09 09:56:50;;;;;;;251.95;89.07;;;;;;;;;;5492868;26;20709;-42
2024/04/09 09:59:21;;;;;;;251.55;88.40;;;;;;;;;;5516899;26;20265;-42
2024/04/09 10:01:48;;;;;;;251.52;86.72;;;;;;;;;;5515167;26;20277;-42
2024/04/09 10:04:18;;;;;;;250.43;86.32;;;;;;;;;;5514334;26;20226;-42
2024/04/09 10:06:53;;;;;;;247.38;80.38;;;;;;;;;;5514016;26;20219;-42
2024/04/09 10:09:19;;;;;;;249.13;83.57;;;;;;;;;;5491811;25;20220;-42
2024/04/09 10:11:45;;;;;;;253.77;82.37;;;;;;;;;;5505483;26;20230;-42
2024/04/09 10:14:12;;;;;;;251.87;85.33;;;;;;;;;;5496907;25;20498;-42
2024/04/09 10:16:38;;;;;;;248.32;82.00;;;;;;;;;;5510031;25;21013;-42
2024/04/09 10:19:04;;;;;;;244.70;78.27;;;;;;;;;;5502450;26;20271;-42
2024/04/09 10:21:31;;;;;;;246.15;79.60;;;;;;;;;;5512629;26;20445;-42
2024/04/09 10:24:03;;;;;;;249.35;84.22;;;;;;;;;;5516018;26;20272;-42
2024/04/09 10:26:30;;;;;;;245.15;79.05;;;;;;;;;;5511357;26;20269;-42
2024/04/09 10:29:03;;;;;;;248.00;80.80;;;;;;;;;;5520661;25;20658;-42
2024/04/09 10:31:33;;;;;;;247.27;79.80;;;;;;;;;;5504412;26;20455;-42
2024/04/09 10:33:59;;;;;;;250.77;86.30;;;;;;;;;;5519229;26;20445;-42
2024/04/09 10:36:25;;;;;;;250.47;85.00;;;;;;;;;;5517561;26;20504;-42
2024/04/09 10:38:51;;;;;;;248.27;82.10;;;;;;;;;;5516971;26;20506;-42
2024/04/09 10:41:17;;;;;;;252.57;86.78;;;;;;;;;;5522927;26;20454;-42
2024/04/09 10:43:43;;;;;;;248.17;80.87;;;;;;;;;;5515725;26;20275;-43
2024/04/09 10:46:10;;;;;;;252.33;86.13;;;;;;;;;;5513775;26;20460;-42
2024/04/09 10:48:36;;;;;;;254.87;87.67;;;;;;;;;;5511039;26;20458;-42
2024/04/09 10:51:02;;;;;;;254.03;88.83;;;;;;;;;;5510646;25;20498;-42
2024/04/09 10:53:28;;;;;;;255.13;88.20;;;;;;;;;;5516646;26;20443;-42
2024/04/09 10:56:01;;;;;;;252.38;86.38;;;;;;;;;;5505133;26;21014;-42
2024/04/09 10:58:27;;;;;;;251.63;85.20;;;;;;;;;;5509103;26;20641;-42
2024/04/09 11:00:56;;;;;;;256.20;91.63;;;;;;;;;;5509387;26;20799;-42
2024/04/09 11:03:23;;;;;;;249.57;83.50;;;;;;;;;;5508359;26;20442;-42
2024/04/09 11:05:52;;;;;;;249.27;83.03;;;;;;;;;;5506860;25;21044;-42
2024/04/09 11:08:28;;;;;;;246.43;80.17;;;;;;;;;;5514300;26;21068;-42
2024/04/09 11:10:54;;;;;;;250.97;86.37;;;;;;;;;;5508824;26;20449;-42
2024/04/09 11:13:20;;;;;;;246.77;81.00;;;;;;;;;;5522207;26;20502;-42
2024/04/09 11:15:46;;;;;;;253.23;89.63;;;;;;;;;;5518760;25;20450;-42
2024/04/09 11:18:20;;;;;;;246.63;80.93;;;;;;;;;;5517951;26;20494;-42
2024/04/09 11:20:51;;;;;;;245.77;80.67;;;;;;;;;;5517187;25;20450;-42
2024/04/09 11:23:17;;;;;;;248.47;83.57;;;;;;;;;;5516340;26;21109;-42
2024/04/09 11:25:43;;;;;;;248.67;83.40;;;;;;;;;;5515996;25;20459;-42
2024/04/09 11:28:09;;;;;;;248.47;81.20;;;;;;;;;;5520569;26;20834;-42
2024/04/09 11:30:42;;;;;;;245.80;82.53;;;;;;;;;;5516568;25;20516;-42
2024/04/09 11:33:09;;;;;;;248.38;84.10;;;;;;;;;;5516285;26;20976;-42
2024/04/09 11:35:36;;;;;;;249.63;85.47;;;;;;;;;;5514817;25;20591;-42
2024/04/09 11:38:03;;;;;;;251.07;85.10;;;;;;;;;;5514104;26;20513;-42
2024/04/09 11:40:29;;;;;;;250.87;84.07;;;;;;;;;;5518461;26;20448;-42
2024/04/09 11:42:56;;;;;;;254.03;90.53;;;;;;;;;;5521882;26;20506;-44
2024/04/09 11:45:29;;;;;;;252.07;88.07;;;;;;;;;;5513415;26;20445;-42
2024/04/09 11:47:55;;;;;;;254.47;91.20;;;;;;;;;;5511007;25;20514;-42
2024/04/09 11:50:21;;;;;;;256.97;98.80;;;;;;;;;;5510150;26;20453;-42
2024/04/09 11:52:47;;;;;;;249.37;84.63;;;;;;;;;;5509581;26;20608;-42
2024/04/09 11:55:13;;;;;;;253.87;90.60;;;;;;;;;;5522828;25;20445;-42
2024/04/09 11:57:44;;;;;;;249.57;85.73;;;;;;;;;;5501765;26;20445;-42
2024/04/09 12:00:12;;;;;;;247.77;83.73;;;;;;;;;;5523771;25;20441;-42
2024/04/09 12:02:38;;;;;;;252.57;89.27;;;;;;;;;;5521185;25;20856;-43
2024/04/09 12:05:04;;;;;;;261.77;94.33;;;;;;;;;;5520225;26;20453;-43
2024/04/09 12:07:30;;;;;;;249.60;88.40;;;;;;;;;;5519266;26;20510;-43
2024/04/09 12:09:57;;;;;;;253.07;91.67;;;;;;;;;;5518180;26;20447;-43
2024/04/09 12:12:23;;;;;;;253.07;87.33;;;;;;;;;;5521134;26;21028;-43
2024/04/09 12:14:49;;;;;;;251.00;88.20;;;;;;;;;;5516621;26;20446;-43
2024/04/09 12:17:14;;;;;;;252.07;88.27;;;;;;;;;;5514956;25;20503;-43
2024/04/09 12:19:42;;;;;;;251.07;87.87;;;;;;;;;;5514039;26;20454;-43
2024/04/09 12:22:08;;;;;;;256.70;95.17;;;;;;;;;;5513702;26;20502;-43
2024/04/09 12:24:35;;;;;;;252.17;89.03;;;;;;;;;;5516736;25;20448;-43
2024/04/09 12:27:01;;;;;;;255.13;93.93;;;;;;;;;;5520530;25;20525;-43
2024/04/09 12:29:30;;;;;;;250.27;89.10;;;;;;;;;;5501733;26;20456;-42
2024/04/09 12:31:56;;;;;;;248.30;85.47;;;;;;;;;;5510620;26;20577;-42
2024/04/09 12:34:23;;;;;;;254.00;94.20;;;;;;;;;;5509593;26;20454;-42
2024/04/09 12:36:49;;;;;;;247.20;80.90;;;;;;;;;;5508399;25;20443;-42
2024/04/09 12:39:15;;;;;;;252.63;93.07;;;;;;;;;;5492827;25;20969;-43
2024/04/09 12:41:41;;;;;;;249.23;84.57;;;;;;;;;;5522899;26;20562;-43
2024/04/09 12:44:07;;;;;;;253.83;92.80;;;;;;;;;;5521208;25;20846;-43
2024/04/09 12:46:33;;;;;;;249.33;86.97;;;;;;;;;;5519991;26;20443;-43
2024/04/09 12:48:59;;;;;;;258.77;100.37;;;;;;;;;;5519816;26;20462;-43
2024/04/09 12:51:26;;;;;;;258.77;100.90;;;;;;;;;;5518487;26;20567;-43
2024/04/09 12:53:52;;;;;;;252.50;91.00;;;;;;;;;;5517436;26;20438;-43
2024/04/09 12:56:20;;;;;;;255.70;96.67;;;;;;;;;;5509202;25;20451;-43
2024/04/09 12:58:46;;;;;;;251.93;92.03;;;;;;;;;;5516830;26;20505;-43
2024/04/09 13:01:12;;;;;;;262.27;101.23;;;;;;;;;;5507099;25;21002;-43
2024/04/09 13:03:39;;;;;;;253.63;93.87;;;;;;;;;;5502603;26;20463;-43
2024/04/09 13:06:05;;;;;;;249.93;90.87;;;;;;;;;;5512746;25;20555;-43
2024/04/09 13:08:31;;;;;;;254.80;95.77;;;;;;;;;;5509062;26;20439;-43
2024/04/09 13:10:57;;;;;;;253.10;89.60;;;;;;;;;;5520075;26;20450;-43
2024/04/09 13:13:23;;;;;;;249.97;87.83;;;;;;;;;;5510825;25;20909;-43
2024/04/09 13:15:49;;;;;;;249.90;87.03;;;;;;;;;;5509536;25;20446;-43
2024/04/09 13:18:15;;;;;;;251.73;88.20;;;;;;;;;;5508823;26;20487;-43
2024/04/09 13:20:41;;;;;;;253.17;92.87;;;;;;;;;;5509286;26;20557;-43
2024/04/09 13:23:07;;;;;;;254.47;92.13;;;;;;;;;;5520322;25;20498;-43
2024/04/09 13:25:33;;;;;;;251.63;89.80;;;;;;;;;;5523824;26;20511;-43
2024/04/09 13:27:59;;;;;;;253.13;90.60;;;;;;;;;;5520701;26;20452;-43
2024/04/09 13:30:27;;;;;;;254.37;93.80;;;;;;;;;;5520070;26;20575;-43
2024/04/09 13:32:53;;;;;;;250.03;87.53;;;;;;;;;;5518885;25;20489;-43
2024/04/09 13:35:19;;;;;;;251.20;91.40;;;;;;;;;;5517566;26;20677;-43
2024/04/09 13:37:45;;;;;;;252.90;91.30;;;;;;;;;;5517727;26;20433;-43
2024/04/09 13:40:12;;;;;;;248.77;86.50;;;;;;;;;;5523222;25;20557;-42
2024/04/09 13:42:45;;;;;;;250.40;87.53;;;;;;;;;;5515654;26;20525;-43
2024/04/09 13:45:11;;;;;;;254.97;92.77;;;;;;;;;;5514210;26;21110;-43
2024/04/09 13:47:37;;;;;;;244.97;81.53;;;;;;;;;;5513499;26;20841;-43
2024/04/09 13:50:07;;;;;;;251.07;88.90;;;;;;;;;;5512478;25;20460;-43
2024/04/09 13:52:33;;;;;;;249.13;87.97;;;;;;;;;;5515726;26;20496;-43
2024/04/09 13:54:59;;;;;;;249.57;87.57;;;;;;;;;;5519380;26;20499;-43
2024/04/09 13:57:25;;;;;;;249.87;87.23;;;;;;;;;;5492520;26;20640;-43
2024/04/09 13:59:51;;;;;;;250.93;89.87;;;;;;;;;;5503402;25;21084;-43
2024/04/09 14:02:17;;;;;;;255.77;96.67;;;;;;;;;;5508230;26;20505;-43